Genco Auvergne — V7ES3 — position and weather

sailwx.info

Track history (hours):
 
Tides and Currents Weather Stations Pressure Air Temp Water Temp Dewpoint Dewpoint Depression Visibility Wind Speed Wind Dir Waves Ship Positions

Genco Auvergne

Last reported at 2018-Mar-03 19:51 UTC. Time now 2018-Apr-23 19:33 UTC.
Position N 28°23' W 013°21'.
Warning: this ship's position is 50 days out of date.

Length 190 m; draft 10.2 m.

Type: Cargo ship. MMSI: 538002570.

Date/timePositionNaut miles runAvg speedWind from/ knotsBaromVisibWave heightAir tempDewpointWater temp
2018-Mar-03 19:51N 28°23' W 013°21'411.2
2018-Mar-03 19:28N 28°27' W 013°19'511.0
2018-Mar-03 19:00N 28°31' W 013°15'611.4
2018-Mar-03 18:28N 28°36' W 013°11'611.8
2018-Mar-03 18:00N 28°41' W 013°08'912.1
2018-Mar-03 17:16N 28°48' W 013°02'411.6
2018-Mar-03 16:56N 28°51' W 012°60'511.5
2018-Mar-03 16:28N 28°55' W 012°56'511.4
2018-Mar-03 16:00N 28°60' W 012°53'  
2018-Feb-28 13:57N 35°59' W 005°32'4 8.2
2018-Feb-28 13:30N 36°00' W 005°28'4 8.2
2018-Feb-28 13:00N 36°03' W 005°24'4 8.8
2018-Feb-28 12:30N 36°07' W 005°22'1 0.2
2018-Feb-28 07:43N 36°08' W 005°22'0 0.1
2018-Feb-28 07:25N 36°08' W 005°22'0 0.1
2018-Feb-28 05:49N 36°08' W 005°22'2 5.4
2018-Feb-28 05:28N 36°06' W 005°22'4 8.0
2018-Feb-28 05:00N 36°05' W 005°17'0 0.5
2018-Feb-28 04:30N 36°05' W 005°17'0 0.8
2018-Feb-28 04:00N 36°05' W 005°18'3 5.9
2018-Feb-28 03:30N 36°05' W 005°14'  
2018-Feb-24 11:31N 36°35' E 013°54'010.8
2018-Feb-24 11:30N 36°35' E 013°55'610.8
2018-Feb-24 10:55N 36°34' E 014°02'510.8
2018-Feb-24 10:30N 36°33' E 014°08'510.5
2018-Feb-24 10:00N 36°32' E 014°14'510.3
2018-Feb-24 09:30N 36°31' E 014°20'510.3
2018-Feb-24 08:59N 36°29' E 014°27'510.1
2018-Feb-24 08:30N 36°28' E 014°33'5 9.7
2018-Feb-24 07:59N 36°27' E 014°39'  
Track history (hours):
 
Tides and Currents Weather Stations Pressure Air Temp Water Temp Dewpoint Dewpoint Depression Visibility Wind Speed Wind Dir Waves Ship Positions

Genco Auvergne

Last reported at 2018-Mar-03 19:51 UTC. Time now 2018-Apr-23 19:33 UTC.
Position N 28°23' W 013°21'.
Warning: this ship's position is 50 days out of date.

Length 190 m; draft 10.2 m.

Type: Cargo ship. MMSI: 538002570.

Date/timePositionNaut miles runAvg speedWind from/ knotsBaromVisibWave heightAir tempDewpointWater temp
2018-Mar-03 19:51N 28°23' W 013°21'411.2
2018-Mar-03 19:28N 28°27' W 013°19'511.0
2018-Mar-03 19:00N 28°31' W 013°15'611.4
2018-Mar-03 18:28N 28°36' W 013°11'611.8
2018-Mar-03 18:00N 28°41' W 013°08'912.1
2018-Mar-03 17:16N 28°48' W 013°02'411.6
2018-Mar-03 16:56N 28°51' W 012°60'511.5
2018-Mar-03 16:28N 28°55' W 012°56'511.4
2018-Mar-03 16:00N 28°60' W 012°53'  
2018-Feb-28 13:57N 35°59' W 005°32'4 8.2
2018-Feb-28 13:30N 36°00' W 005°28'4 8.2
2018-Feb-28 13:00N 36°03' W 005°24'4 8.8
2018-Feb-28 12:30N 36°07' W 005°22'1 0.2
2018-Feb-28 07:43N 36°08' W 005°22'0 0.1
2018-Feb-28 07:25N 36°08' W 005°22'0 0.1
2018-Feb-28 05:49N 36°08' W 005°22'2 5.4
2018-Feb-28 05:28N 36°06' W 005°22'4 8.0
2018-Feb-28 05:00N 36°05' W 005°17'0 0.5
2018-Feb-28 04:30N 36°05' W 005°17'0 0.8
2018-Feb-28 04:00N 36°05' W 005°18'3 5.9
2018-Feb-28 03:30N 36°05' W 005°14'  
2018-Feb-24 11:31N 36°35' E 013°54'010.8
2018-Feb-24 11:30N 36°35' E 013°55'610.8
2018-Feb-24 10:55N 36°34' E 014°02'510.8
2018-Feb-24 10:30N 36°33' E 014°08'510.5
2018-Feb-24 10:00N 36°32' E 014°14'510.3
2018-Feb-24 09:30N 36°31' E 014°20'510.3
2018-Feb-24 08:59N 36°29' E 014°27'510.1
2018-Feb-24 08:30N 36°28' E 014°33'5 9.7
2018-Feb-24 07:59N 36°27' E 014°39'  

Dump ship's entire track history